Time;durP1;ratioP1;P1;durP2;ratioP2;P2;SDS_P1;SDS_P2;PMS_P1;PMS_P2;Temp;Humidity;BMP_temperature;BMP_pressure;BME280_temperature;BME280_humidity;BME280_pressure;Samples;Min_cycle;Max_cycle;Signal;HPM_P1;HPM_P2
2022/04/02 00:00:40;;;;;;;6.63;3.90;;;358.50;2329.60;;;;;;4995820;28;20115;-80
2022/04/02 00:03:19;;;;;;;7.00;3.55;;;358.50;2329.60;;;;;;4995976;28;20026;-82
2022/04/02 00:05:46;;;;;;;5.43;2.63;;;358.50;2329.60;;;;;;4995949;28;20026;-81
2022/04/02 00:08:12;;;;;;;5.25;1.65;;;358.50;2329.60;;;;;;4996118;28;20026;-82
2022/04/02 00:10:38;;;;;;;5.10;2.40;;;358.40;2329.60;;;;;;4995901;28;20034;-83
2022/04/02 00:13:04;;;;;;;4.32;2.22;;;333.70;2329.60;;;;;;4995595;28;20025;-82
2022/04/02 00:15:36;;;;;;;4.30;1.40;;;358.50;2329.60;;;;;;4995633;28;20030;-82
2022/04/02 00:18:11;;;;;;;4.72;2.10;;;358.40;2329.60;;;;;;4998903;28;20034;-78
2022/04/02 00:20:49;;;;;;;4.80;1.40;;;358.40;2329.60;;;;;;4999403;28;20022;-83
2022/04/02 00:26:01;;;;;;;2.53;1.45;;;358.40;2329.60;;;;;;5016908;28;20148;-83
2022/04/02 00:28:28;;;;;;;7.72;3.00;;;358.40;2329.60;;;;;;4999510;28;20171;-81
2022/04/02 00:30:54;;;;;;;5.43;2.80;;;358.40;2329.60;;;;;;4999400;28;20022;-83
2022/04/02 00:33:20;;;;;;;7.85;3.95;;;333.70;2329.60;;;;;;4998999;28;20029;-85
2022/04/02 00:35:46;;;;;;;4.25;2.00;;;333.70;2329.60;;;;;;4999263;28;20022;-83
2022/04/02 00:38:18;;;;;;;5.15;2.38;;;333.60;2329.60;;;;;;5016659;28;20088;-82
2022/04/02 00:41:04;;;;;;;5.03;2.17;;;333.60;2329.60;;;;;;4998584;28;20022;-82
2022/04/02 00:43:44;;;;;;;5.47;2.95;;;333.50;2329.60;;;;;;4998708;28;20037;-81
2022/04/02 00:46:25;;;;;;;6.93;2.80;;;333.50;2329.60;;;;;;4999094;28;20025;-83
2022/04/02 00:48:54;;;;;;;4.55;2.30;;;333.50;2329.60;;;;;;5000421;28;20022;-84
2022/04/02 00:51:26;;;;;;;5.93;2.72;;;333.50;2329.60;;;;;;5000930;28;20022;-79
2022/04/02 00:53:52;;;;;;;7.53;3.10;;;333.40;2329.60;;;;;;4998669;28;20049;-80
2022/04/02 00:56:20;;;;;;;6.45;2.33;;;333.40;2329.60;;;;;;4998488;28;20026;-82
2022/04/02 00:58:46;;;;;;;8.50;3.85;;;333.40;2329.60;;;;;;4998695;28;20025;-80
2022/04/02 01:01:12;;;;;;;7.18;3.70;;;333.30;2329.60;;;;;;4998386;28;20026;-81
2022/04/02 01:03:39;;;;;;;11.07;5.47;;;333.20;2329.60;;;;;;4998763;28;20058;-79
2022/04/02 01:06:05;;;;;;;7.30;3.50;;;333.40;2329.60;;;;;;4998676;28;20022;-82
2022/04/02 01:08:34;;;;;;;10.35;4.18;;;333.30;2329.60;;;;;;4998612;28;20026;-81
2022/04/02 01:11:03;;;;;;;8.48;3.63;;;333.40;2329.60;;;;;;4998871;28;20152;-82
2022/04/02 01:13:30;;;;;;;4.30;1.88;;;333.40;2329.60;;;;;;4998588;28;20080;-82
2022/04/02 01:16:02;;;;;;;7.90;2.83;;;333.30;2329.60;;;;;;4998004;28;20053;-80
2022/04/02 01:18:42;;;;;;;;;;;;;;;;;;;;;
2022/04/02 01:21:12;;;;;;;3.40;1.50;;;333.40;2329.60;;;;;;5011838;28;20472;-79
2022/04/02 01:23:49;;;;;;;3.50;1.67;;;333.30;2329.60;;;;;;4998003;28;20037;-83
2022/04/02 01:26:25;;;;;;;3.90;1.65;;;333.30;2329.60;;;;;;4998011;28;20460;-81
2022/04/02 01:29:03;;;;;;;4.00;1.73;;;333.20;2329.60;;;;;;5023237;28;20033;-83
2022/04/02 01:31:43;;;;;;;5.47;2.22;;;333.30;2329.60;;;;;;5023606;28;20014;-81
2022/04/02 01:34:22;;;;;;;4.60;1.40;;;333.20;2329.60;;;;;;5011574;28;20029;-80
2022/04/02 01:37:15;;;;;;;4.25;2.00;;;333.20;2329.60;;;;;;4999337;28;20057;-78
2022/04/02 01:39:45;;;;;;;;;;;333.20;2329.60;;;;;;4999903;28;20072;-81
2022/04/02 01:42:12;;;;;;;3.80;1.77;;;333.20;2329.60;;;;;;4998649;28;20248;-83
2022/04/02 01:44:38;;;;;;;4.75;1.88;;;333.20;2329.60;;;;;;4998291;28;20379;-79
2022/04/02 01:47:12;;;;;;;3.30;1.70;;;333.10;2329.60;;;;;;4998089;28;20021;-80
2022/04/02 01:49:41;;;;;;;6.63;2.20;;;333.20;2329.60;;;;;;4998138;28;20030;-80
2022/04/02 01:52:10;;;;;;;5.40;1.88;;;333.10;2329.60;;;;;;4997591;28;20030;-81
2022/04/02 01:54:36;;;;;;;4.97;2.60;;;333.10;2329.60;;;;;;4997595;28;20053;-81
2022/04/02 01:57:05;;;;;;;7.68;3.42;;;333.10;2329.60;;;;;;4997445;28;20017;-81
2022/04/02 01:59:31;;;;;;;3.85;1.73;;;333.10;2329.60;;;;;;4997911;28;20022;-82
2022/04/02 02:02:01;;;;;;;6.78;2.33;;;333.10;2329.60;;;;;;4997832;28;20048;-80
2022/04/02 02:04:28;;;;;;;4.15;1.73;;;333.40;2329.60;;;;;;4997194;28;20025;-79
2022/04/02 02:06:54;;;;;;;8.52;3.78;;;333.10;2329.60;;;;;;4997437;28;20119;-81
2022/04/02 02:09:28;;;;;;;6.50;2.88;;;333.20;2329.60;;;;;;4997541;28;20021;-78
2022/04/02 02:11:54;;;;;;;5.53;2.10;;;333.00;2329.60;;;;;;4996617;28;20446;-80
2022/04/02 02:14:31;;;;;;;6.53;2.70;;;332.90;2329.60;;;;;;4997357;28;20087;-83
2022/04/02 02:16:58;;;;;;;6.55;2.47;;;333.00;2329.60;;;;;;4994832;28;20026;-85
2022/04/02 02:19:27;;;;;;;3.15;1.58;;;333.00;2329.60;;;;;;4996595;28;20028;-83
2022/04/02 02:21:54;;;;;;;6.25;1.63;;;332.90;2329.60;;;;;;4997446;28;20022;-81
2022/04/02 02:24:20;;;;;;;5.93;2.25;;;333.40;2329.60;;;;;;4997244;28;20030;-82
2022/04/02 02:26:47;;;;;;;7.57;2.80;;;332.90;2329.60;;;;;;5014194;28;20458;-83
2022/04/02 02:29:13;;;;;;;8.45;2.80;;;332.90;2329.60;;;;;;4997233;28;20061;-80
2022/04/02 02:31:39;;;;;;;6.75;1.83;;;332.90;2329.60;;;;;;4996908;28;20026;-83
2022/04/02 02:37:06;;;;;;;8.25;2.28;;;332.90;2329.60;;;;;;5014509;28;20108;-81
2022/04/02 02:39:51;;;;;;;10.80;3.97;;;308.10;2304.00;;;;;;4996470;28;20450;-78
2022/04/02 02:42:20;;;;;;;8.23;2.47;;;332.90;2329.60;;;;;;4996694;28;20378;-82
2022/04/02 02:44:57;;;;;;;12.00;4.53;;;333.60;2329.60;;;;;;4996128;28;20018;-81
2022/04/02 02:47:52;;;;;;;12.77;4.80;;;332.80;2329.60;;;;;;4996521;28;20444;-81
2022/04/02 02:50:42;;;;;;;11.10;3.67;;;332.80;2329.60;;;;;;4996330;28;20080;-80
2022/04/02 02:53:14;;;;;;;7.95;2.38;;;308.10;2304.00;;;;;;4996132;28;20486;-81
2022/04/02 02:55:40;;;;;;;7.57;2.30;;;332.80;2329.60;;;;;;4996641;28;20466;-80
2022/04/02 02:58:08;;;;;;;12.50;6.47;;;308.10;2304.00;;;;;;4996513;28;20025;-83
2022/04/02 03:00:34;;;;;;;26.50;16.55;;;308.10;2304.00;;;;;;4996520;28;20029;-79
2022/04/02 03:03:00;;;;;;;12.07;7.18;;;308.10;2304.00;;;;;;4996658;28;20531;-81
2022/04/02 03:05:26;;;;;;;9.07;4.07;;;308.00;2304.00;;;;;;4996392;28;20029;-83
2022/04/02 03:07:53;;;;;;;13.95;5.07;;;307.90;2304.00;;;;;;4996294;28;20041;-82
2022/04/02 03:10:25;;;;;;;8.10;3.70;;;307.80;2304.00;;;;;;4996614;28;20026;-81
2022/04/02 03:12:52;;;;;;;5.80;2.70;;;307.80;2304.00;;;;;;4996462;28;20029;-82
2022/04/02 03:15:19;;;;;;;26.88;9.77;;;307.70;2304.00;;;;;;4996386;28;20057;-82
2022/04/02 03:17:46;;;;;;;9.80;4.20;;;307.60;2304.00;;;;;;4996250;28;20018;-79
2022/04/02 03:20:14;;;;;;;7.88;4.05;;;307.50;2304.00;;;;;;4996309;28;20030;-83
2022/04/02 03:22:41;;;;;;;8.45;4.72;;;307.60;2304.00;;;;;;4996052;28;20478;-81
2022/04/02 03:25:09;;;;;;;9.98;3.70;;;307.60;2304.00;;;;;;4996100;28;20029;-83
2022/04/02 03:27:46;;;;;;;5.22;2.78;;;307.70;2304.00;;;;;;4980438;28;20126;-82
2022/04/02 03:30:20;;;;;;;8.75;4.30;;;307.70;2304.00;;;;;;4996049;28;20528;-81
2022/04/02 03:32:50;;;;;;;5.70;2.45;;;307.70;2304.00;;;;;;4996133;28;20116;-79
2022/04/02 03:35:24;;;;;;;19.88;9.38;;;307.70;2304.00;;;;;;4996116;28;20038;-83
2022/04/02 03:37:54;;;;;;;4.53;2.10;;;307.70;2304.00;;;;;;4996436;28;20028;-83
2022/04/02 03:51:06;;;;;;;;;;;332.90;2329.60;;;;;;4865812;29;20058;-79
2022/04/02 03:53:41;;;;;;;3.70;2.00;;;333.00;2329.60;;;;;;4904734;29;20375;-80
2022/04/02 03:57:39;;;;;;;4.32;1.77;;;333.00;2329.60;;;;;;4921534;29;20484;-82
2022/04/02 03:59:56;;;;;;;6.15;2.05;;;333.00;2329.60;;;;;;4933845;29;20035;-82
2022/04/02 04:02:31;;;;;;;7.00;2.45;;;333.10;2329.60;;;;;;4988230;28;20484;-81
2022/04/02 04:11:50;;;;;;;5.50;3.03;;;332.90;2329.60;;;;;;4898635;29;20107;-80
2022/04/02 04:14:20;;;;;;;9.80;5.75;;;333.00;2329.60;;;;;;4993750;28;20041;-79
2022/04/02 04:16:56;;;;;;;8.30;2.53;;;333.00;2329.60;;;;;;4999382;28;20022;-80
2022/04/02 04:26:25;;;;;;;7.18;3.33;;;333.10;2329.60;;;;;;4862056;29;20066;-81
2022/04/02 04:28:52;;;;;;;10.93;4.72;;;333.10;2329.60;;;;;;4858289;29;20469;-81
2022/04/02 04:31:18;;;;;;;8.07;3.35;;;333.20;2329.60;;;;;;4902312;29;20260;-82
2022/04/02 04:33:47;;;;;;;5.97;3.03;;;333.00;2329.60;;;;;;4960464;28;20386;-80
2022/04/02 04:36:15;;;;;;;6.10;2.58;;;333.20;2329.60;;;;;;4999443;28;20485;-82
2022/04/02 04:38:41;;;;;;;7.70;3.50;;;333.20;2329.60;;;;;;4998757;28;20018;-82
2022/04/02 04:41:08;;;;;;;7.53;3.58;;;333.10;2329.60;;;;;;4999452;28;20095;-80
2022/04/02 04:43:35;;;;;;;6.90;3.35;;;333.20;2329.60;;;;;;5005382;28;20048;-81
2022/04/02 04:46:22;;;;;;;8.35;4.38;;;333.10;2329.60;;;;;;5004339;28;20022;-80
2022/04/02 04:48:48;;;;;;;8.48;4.20;;;333.10;2329.60;;;;;;4999277;28;20430;-83
2022/04/02 04:51:24;;;;;;;9.60;5.20;;;333.10;2329.60;;;;;;4999069;28;20022;-80
2022/04/02 04:53:51;;;;;;;9.40;4.40;;;333.10;2329.60;;;;;;4998318;28;20046;-81
2022/04/02 04:56:54;;;;;;;7.00;4.53;;;333.10;2329.60;;;;;;4998829;28;20362;-82
2022/04/02 04:59:20;;;;;;;;;;;333.10;2329.60;;;;;;4998884;28;20022;-83
2022/04/02 05:02:07;;;;;;;;;;;;;;;;;;;;;
2022/04/02 05:04:35;;;;;;;17.02;8.40;;;333.10;2329.60;;;;;;5015220;28;20373;-79
2022/04/02 05:07:01;;;;;;;15.57;7.70;;;333.00;2329.60;;;;;;4998573;28;20549;-77
2022/04/02 05:09:27;;;;;;;16.45;8.50;;;333.40;2329.60;;;;;;4998848;28;20335;-83
2022/04/02 05:11:53;;;;;;;16.23;7.90;;;333.10;2329.60;;;;;;4998771;28;20080;-82
2022/04/02 05:14:20;;;;;;;13.52;6.57;;;333.10;2329.60;;;;;;4998315;28;20037;-83
2022/04/02 05:16:46;;;;;;;8.30;2.95;;;333.10;2329.60;;;;;;4998623;28;20025;-83
2022/04/02 05:19:12;;;;;;;5.40;2.70;;;333.20;2329.60;;;;;;4998628;28;20026;-84
2022/04/02 05:21:38;;;;;;;7.45;2.13;;;333.30;2329.60;;;;;;4998184;28;20026;-81
2022/04/02 05:24:04;;;;;;;5.30;2.45;;;333.20;2329.60;;;;;;4998567;28;20088;-83
2022/04/02 05:26:30;;;;;;;18.45;9.20;;;333.40;2329.60;;;;;;4998199;28;20026;-84
2022/04/02 05:29:10;;;;;;;4.20;2.05;;;333.40;2329.60;;;;;;5015743;28;20014;-82
2022/04/02 05:31:41;;;;;;;5.13;2.60;;;333.40;2329.60;;;;;;4994496;28;20022;-81
2022/04/02 05:34:08;;;;;;;8.68;3.20;;;333.50;2329.60;;;;;;4998161;28;20032;-79
2022/04/02 05:36:44;;;;;;;6.45;3.10;;;333.50;2329.60;;;;;;4997974;28;20111;-82
2022/04/02 05:39:41;;;;;;;;;;;;;;;;;;;;;
2022/04/02 05:42:32;;;;;;;5.05;2.25;;;333.60;2329.60;;;;;;5011872;28;20095;-83
2022/04/02 05:44:58;;;;;;;7.13;2.70;;;333.60;2329.60;;;;;;4992912;28;20033;-79
2022/04/02 05:47:25;;;;;;;5.07;3.40;;;333.50;2329.60;;;;;;4997843;28;20072;-81
2022/04/02 05:49:54;;;;;;;7.25;3.47;;;333.50;2329.60;;;;;;4997908;28;20028;-81
2022/04/02 05:52:20;;;;;;;9.45;5.78;;;333.40;2329.60;;;;;;4997759;28;20014;-77
2022/04/02 05:54:56;;;;;;;7.47;2.55;;;333.60;2329.60;;;;;;4997618;28;20049;-83
2022/04/02 05:57:28;;;;;;;7.15;3.30;;;333.60;2329.60;;;;;;4997775;28;20095;-80
2022/04/02 05:59:54;;;;;;;6.95;2.67;;;333.60;2329.60;;;;;;4997953;28;20018;-80
2022/04/02 06:02:20;;;;;;;5.88;2.72;;;333.60;2329.60;;;;;;4997287;28;20362;-82
2022/04/02 06:04:46;;;;;;;6.30;2.97;;;358.80;2329.60;;;;;;4997774;28;20025;-81
2022/04/02 06:07:12;;;;;;;4.78;2.30;;;333.70;2329.60;;;;;;4997689;28;20028;-84
2022/04/02 06:09:39;;;;;;;6.50;2.45;;;333.70;2329.60;;;;;;4997485;28;20458;-80
2022/04/02 06:12:08;;;;;;;10.18;2.78;;;333.60;2329.60;;;;;;4997523;28;20021;-78
2022/04/02 06:14:34;;;;;;;7.15;2.58;;;333.60;2329.60;;;;;;4996127;28;20513;-83
2022/04/02 06:17:03;;;;;;;9.82;2.65;;;333.60;2329.60;;;;;;4996694;28;20466;-83
2022/04/02 06:19:35;;;;;;;6.13;3.38;;;333.60;2329.60;;;;;;4997183;28;20052;-80
2022/04/02 06:22:07;;;;;;;7.80;2.40;;;333.60;2329.60;;;;;;4996204;28;20053;-79
2022/04/02 06:24:36;;;;;;;6.57;3.38;;;333.50;2329.60;;;;;;4997057;28;20354;-81
2022/04/02 06:27:15;;;;;;;6.53;3.25;;;333.50;2329.60;;;;;;4997183;28;20064;-80
2022/04/02 06:29:41;;;;;;;11.65;4.13;;;333.50;2329.60;;;;;;4997384;28;20068;-82
2022/04/02 06:32:13;;;;;;;11.68;3.72;;;333.50;2329.60;;;;;;4996882;28;20018;-78
2022/04/02 06:34:40;;;;;;;6.35;3.45;;;333.40;2329.60;;;;;;4997144;28;20048;-80
2022/04/02 06:37:06;;;;;;;8.65;4.28;;;333.40;2329.60;;;;;;4996789;28;20080;-83
2022/04/02 06:39:33;;;;;;;12.55;5.93;;;333.40;2329.60;;;;;;4997146;28;20473;-83
2022/04/02 06:41:59;;;;;;;13.02;9.05;;;333.40;2329.60;;;;;;4996994;28;20026;-80
2022/04/02 06:44:25;;;;;;;4.60;2.70;;;333.40;2329.60;;;;;;4997714;28;20026;-83
2022/04/02 06:46:51;;;;;;;4.65;2.50;;;333.40;2329.60;;;;;;4997680;28;20051;-80
2022/04/02 06:49:17;;;;;;;4.60;2.90;;;333.40;2329.60;;;;;;4996980;28;20439;-79
2022/04/02 06:51:43;;;;;;;6.90;2.83;;;333.50;2329.60;;;;;;5012990;28;20049;-80
2022/04/02 06:54:09;;;;;;;7.38;2.38;;;333.40;2329.60;;;;;;4996589;28;20067;-81
2022/04/02 06:56:35;;;;;;;9.88;4.38;;;333.60;2329.60;;;;;;4996829;28;20054;-78
2022/04/02 06:59:01;;;;;;;9.55;3.05;;;333.70;2329.60;;;;;;4996669;28;20358;-82
2022/04/02 07:01:28;;;;;;;7.63;2.88;;;358.80;2329.60;;;;;;5018437;28;20018;-77
2022/04/02 07:03:54;;;;;;;6.22;2.92;;;358.80;2329.60;;;;;;5009110;28;20034;-79
2022/04/02 07:06:20;;;;;;;6.80;2.60;;;358.50;2329.60;;;;;;4996762;28;20028;-81
2022/04/02 07:08:49;;;;;;;10.70;6.30;;;358.60;2329.60;;;;;;4996961;28;20113;-82
2022/04/02 07:11:34;;;;;;;;;;;;;;;;;;;;;
2022/04/02 07:14:39;;;;;;;9.35;4.22;;;358.80;2329.60;;;;;;5013697;28;20030;-79
2022/04/02 07:17:06;;;;;;;5.95;2.80;;;358.80;2329.60;;;;;;4994663;28;20110;-80
2022/04/02 07:19:36;;;;;;;8.50;3.88;;;358.90;2329.60;;;;;;4996179;28;20018;-81
2022/04/02 07:22:26;;;;;;;;;;;;;;;;;;;;;
2022/04/02 07:24:54;;;;;;;11.85;5.72;;;358.90;2304.00;;;;;;5014015;28;20033;-81
2022/04/02 07:27:31;;;;;;;13.85;5.90;;;358.90;2304.00;;;;;;4995989;28;20466;-82
2022/04/02 07:29:57;;;;;;;12.60;5.80;;;359.00;2278.40;;;;;;4996831;28;20037;-83
2022/04/02 07:32:24;;;;;;;7.80;3.95;;;358.90;2278.40;;;;;;4996548;28;20441;-81
2022/04/02 07:34:50;;;;;;;14.05;5.75;;;359.00;2278.40;;;;;;4996132;28;20065;-80
2022/04/02 07:37:58;;;;;;;8.15;2.83;;;359.00;2304.00;;;;;;4996332;28;20018;-79
2022/04/02 07:40:28;;;;;;;10.30;4.15;;;359.10;2278.40;;;;;;4995140;28;20022;-79
2022/04/02 07:43:35;;;;;;;6.25;3.58;;;359.10;2278.40;;;;;;4996461;28;20458;-82
2022/04/02 07:46:10;;;;;;;6.88;3.08;;;359.10;2278.40;;;;;;4996378;28;20018;-80
2022/04/02 07:48:38;;;;;;;5.47;2.90;;;359.10;2252.80;;;;;;4995873;28;20112;-81
2022/04/02 07:51:12;;;;;;;11.77;4.53;;;359.20;2252.80;;;;;;4996444;28;20026;-81
2022/04/02 07:53:49;;;;;;;8.25;3.95;;;359.20;2278.40;;;;;;4996317;28;20082;-83
2022/04/02 07:56:22;;;;;;;8.63;4.55;;;359.20;2278.40;;;;;;5000692;28;20034;-80
2022/04/02 07:58:52;;;;;;;10.02;5.20;;;359.30;2278.40;;;;;;5002602;28;20115;-77
2022/04/02 08:01:19;;;;;;;9.13;3.85;;;384.00;2278.40;;;;;;4996861;28;20088;-80
2022/04/02 08:03:56;;;;;;;11.88;3.35;;;384.00;2227.20;;;;;;4996091;28;20112;-80
2022/04/02 08:06:22;;;;;;;5.80;1.90;;;384.00;2227.20;;;;;;4996092;28;20026;-76
2022/04/02 08:08:50;;;;;;;5.65;3.00;;;384.10;2150.40;;;;;;4995696;28;20053;-81
2022/04/02 08:11:19;;;;;;;6.78;3.97;;;384.10;2176.00;;;;;;4996073;28;20418;-79
2022/04/02 08:13:46;;;;;;;7.85;2.70;;;384.30;2201.60;;;;;;4995822;28;20029;-81
2022/04/02 08:16:15;;;;;;;9.23;2.70;;;384.20;2176.00;;;;;;4995719;28;20065;-81
2022/04/02 08:18:41;;;;;;;5.18;2.70;;;384.10;2176.00;;;;;;4996029;28;20026;-82
2022/04/02 08:21:08;;;;;;;3.70;1.80;;;384.10;2201.60;;;;;;4995858;28;20470;-79
2022/04/02 08:23:38;;;;;;;6.55;3.25;;;359.20;2176.00;;;;;;4995714;28;20018;-80
2022/04/02 08:26:23;;;;;;;8.82;4.93;;;359.30;2201.60;;;;;;4995755;28;20030;-82
2022/04/02 08:29:56;;;;;;;4.30;2.03;;;384.00;2201.60;;;;;;4996143;28;20022;-83
2022/04/02 08:32:38;;;;;;;3.88;1.55;;;359.30;2176.00;;;;;;4953266;28;20427;-82
2022/04/02 09:10:36;;;;;;;6.20;2.20;;;359.30;2176.00;;;;;;4918417;29;20102;-86
2022/04/02 09:17:21;;;;;;;5.88;2.95;;;384.00;2124.80;;;;;;4871624;29;20095;-83
2022/04/02 09:27:20;;;;;;;5.40;3.10;;;384.20;2073.60;;;;;;4984338;28;20033;-83
2022/04/02 09:30:27;;;;;;;6.03;3.55;;;359.20;2073.60;;;;;;4998457;28;20018;-84
2022/04/02 09:37:14;;;;;;;6.00;3.30;;;384.20;2048.00;;;;;;5016049;28;20105;-87
2022/04/02 09:40:02;;;;;;;4.55;2.58;;;384.50;2022.40;;;;;;4919946;29;20543;-82
2022/04/02 09:42:41;;;;;;;4.60;2.67;;;384.70;1996.80;;;;;;4997889;28;20116;-79
2022/04/02 09:45:12;;;;;;;5.13;2.50;;;409.60;1996.80;;;;;;4997667;28;20025;-75
2022/04/02 09:47:59;;;;;;;8.77;4.22;;;409.70;1996.80;;;;;;4997453;28;20021;-78
2022/04/02 09:50:29;;;;;;;7.63;3.75;;;409.80;1971.20;;;;;;4997634;28;20017;-77
2022/04/02 09:53:45;;;;;;;7.15;3.53;;;410.00;1920.00;;;;;;4997588;28;20030;-80
2022/04/02 09:56:57;;;;;;;17.40;6.38;;;410.10;1920.00;;;;;;4996933;28;20046;-84
2022/04/02 09:59:31;;;;;;;7.35;3.25;;;410.40;1894.40;;;;;;4997405;28;20068;-81
2022/04/02 10:02:11;;;;;;;5.38;2.53;;;410.50;1868.80;;;;;;4997263;28;20034;-80
2022/04/02 10:05:50;;;;;;;8.25;3.10;;;435.30;1817.60;;;;;;4997552;28;20022;-84
2022/04/02 10:08:15;;;;;;;9.65;3.63;;;435.50;1792.00;;;;;;5008906;28;20022;-81
2022/04/02 10:10:54;;;;;;;7.53;3.97;;;435.60;1792.00;;;;;;4997253;28;20397;-82
2022/04/02 10:13:21;;;;;;;13.65;8.45;;;435.70;1792.00;;;;;;4997130;28;20018;-82
2022/04/02 10:15:50;;;;;;;6.47;3.17;;;436.00;1766.40;;;;;;4996852;28;20026;-83
2022/04/02 10:18:22;;;;;;;11.48;4.82;;;436.00;1792.00;;;;;;4997012;28;20025;-83
2022/04/02 10:20:54;;;;;;;8.43;4.47;;;436.10;1766.40;;;;;;4996948;28;20377;-81
2022/04/02 10:23:21;;;;;;;;;;;435.80;1766.40;;;;;;4997088;28;20049;-82
2022/04/02 10:26:23;;;;;;;7.20;3.15;;;435.50;1792.00;;;;;;4996774;28;19944;-81
2022/04/02 10:29:07;;;;;;;6.40;3.42;;;435.30;1792.00;;;;;;4996699;28;20125;-81
2022/04/02 10:32:44;;;;;;;;;;;;;;;;;;;;;
2022/04/02 10:35:27;;;;;;;7.72;3.50;;;410.50;1817.60;;;;;;4936346;29;20046;-86
2022/04/02 10:38:09;;;;;;;7.97;2.60;;;410.50;1792.00;;;;;;4924719;28;20496;-85
2022/04/02 10:40:51;;;;;;;8.95;3.92;;;435.30;1792.00;;;;;;4996772;28;20032;-83
2022/04/02 10:43:59;;;;;;;8.30;4.00;;;435.30;1792.00;;;;;;4996570;28;20020;-83
2022/04/02 10:46:33;;;;;;;8.20;5.30;;;435.60;1792.00;;;;;;4988344;28;20028;-82
2022/04/02 10:49:31;;;;;;;13.90;3.78;;;435.60;1766.40;;;;;;4996534;28;20053;-84
2022/04/02 10:52:27;;;;;;;6.07;3.10;;;436.00;1740.80;;;;;;4997137;28;20014;-84
2022/04/02 10:55:15;;;;;;;9.63;6.75;;;435.90;1715.20;;;;;;4918294;29;20044;-84
2022/04/02 10:57:44;;;;;;;6.13;3.10;;;435.80;1766.40;;;;;;4918262;29;20028;-84
2022/04/02 11:00:16;;;;;;;6.05;2.75;;;435.70;1740.80;;;;;;4975660;28;20037;-84
2022/04/02 11:02:45;;;;;;;5.70;2.67;;;435.80;1740.80;;;;;;4977353;28;20015;-84
2022/04/02 11:05:22;;;;;;;7.20;2.50;;;460.90;1740.80;;;;;;4976892;28;20061;-81
2022/04/02 11:11:27;;;;;;;9.10;4.15;;;486.60;1664.00;;;;;;4986528;28;20038;-80
2022/04/02 11:38:56;;;;;;;4.70;2.88;;;538.40;1459.20;;;;;;5633086;23;20062;-80
2022/04/02 11:42:02;;;;;;;4.95;2.00;;;538.30;1484.80;;;;;;4938392;29;20122;-79
2022/04/02 11:44:38;;;;;;;7.45;2.53;;;537.60;1536.00;;;;;;4937327;29;20100;-79
2022/04/02 11:47:08;;;;;;;6.38;2.92;;;537.90;1510.40;;;;;;4938066;29;20026;-78
2022/04/02 11:49:39;;;;;;;8.00;3.20;;;538.20;1510.40;;;;;;4937942;29;20076;-79
2022/04/02 11:52:06;;;;;;;8.10;3.42;;;538.40;1510.40;;;;;;4938407;29;20460;-80
2022/04/02 11:54:47;;;;;;;9.00;3.58;;;563.30;1510.40;;;;;;4938100;29;20045;-79
2022/04/02 11:57:15;;;;;;;7.45;2.80;;;563.30;1459.20;;;;;;4937952;29;20106;-78
2022/04/02 11:59:58;;;;;;;11.25;3.90;;;563.20;1459.20;;;;;;4938103;29;20019;-80
2022/04/02 12:02:39;;;;;;;6.88;4.80;;;563.30;1484.80;;;;;;4937745;29;20024;-78
2022/04/02 12:05:07;;;;;;;9.10;2.85;;;563.30;1459.20;;;;;;4938067;29;20051;-80
2022/04/02 12:08:18;;;;;;;;;;;;;;;;;;;;;
2022/04/02 12:10:49;;;;;;;8.88;3.00;;;563.40;1459.20;;;;;;4916009;28;20028;-79
2022/04/02 12:13:16;;;;;;;5.00;1.58;;;538.50;1433.60;;;;;;4939393;29;20024;-78
2022/04/02 12:16:13;;;;;;;5.65;3.40;;;512.90;1459.20;;;;;;4941072;29;20055;-79
2022/04/02 12:18:53;;;;;;;6.57;2.72;;;537.70;1510.40;;;;;;4941078;29;20058;-76
2022/04/02 12:21:31;;;;;;;6.78;3.10;;;512.30;1510.40;;;;;;4941676;29;20123;-78
2022/04/02 12:24:00;;;;;;;9.27;2.33;;;487.20;1561.60;;;;;;4941536;29;20473;-78
2022/04/02 12:26:27;;;;;;;6.03;2.78;;;487.00;1561.60;;;;;;4941652;29;20090;-78
2022/04/02 12:28:58;;;;;;;6.70;2.95;;;487.00;1561.60;;;;;;4941453;29;20019;-78
2022/04/02 12:31:30;;;;;;;8.65;3.47;;;487.10;1536.00;;;;;;4940976;29;20023;-82
2022/04/02 12:33:57;;;;;;;7.30;3.90;;;486.60;1561.60;;;;;;4941260;29;20480;-79
2022/04/02 12:36:35;;;;;;;5.03;1.80;;;486.80;1561.60;;;;;;4958367;28;20027;-81
2022/04/02 12:39:06;;;;;;;8.45;3.72;;;461.70;1510.40;;;;;;4940936;29;20391;-79
2022/04/02 12:41:33;;;;;;;8.02;3.00;;;486.70;1510.40;;;;;;4958591;29;20023;-80
2022/04/02 12:44:02;;;;;;;4.53;2.60;;;486.70;1510.40;;;;;;4941318;29;20023;-79
2022/04/02 12:46:28;;;;;;;6.55;2.58;;;486.40;1536.00;;;;;;4941006;29;20030;-82
2022/04/02 12:48:58;;;;;;;9.00;2.95;;;486.70;1484.80;;;;;;4941295;29;20046;-79
2022/04/02 12:51:24;;;;;;;8.77;4.15;;;486.90;1484.80;;;;;;4958235;29;20027;-82
2022/04/02 12:53:59;;;;;;;7.88;2.20;;;487.30;1433.60;;;;;;4957954;29;20027;-81
2022/04/02 12:56:38;;;;;;;5.18;2.38;;;487.00;1433.60;;;;;;4941101;29;20074;-82
2022/04/02 12:59:19;;;;;;;4.63;1.98;;;512.50;1433.60;;;;;;4940764;29;20363;-81
2022/04/02 13:01:46;;;;;;;5.95;2.55;;;512.90;1433.60;;;;;;4941219;29;20344;-79
2022/04/02 13:04:13;;;;;;;4.03;1.77;;;537.60;1459.20;;;;;;4941024;29;20162;-81
2022/04/02 13:06:48;;;;;;;5.05;2.22;;;512.90;1433.60;;;;;;4940743;29;20063;-82
2022/04/02 13:09:33;;;;;;;5.15;2.40;;;537.60;1484.80;;;;;;4940735;29;20023;-79
2022/04/02 13:12:01;;;;;;;6.00;2.47;;;538.20;1459.20;;;;;;4958005;29;20020;-80
2022/04/02 13:14:45;;;;;;;11.07;2.85;;;538.20;1459.20;;;;;;4940295;29;20031;-79
2022/04/02 13:17:15;;;;;;;7.53;2.47;;;537.80;1484.80;;;;;;4940639;29;20019;-76
2022/04/02 13:22:40;;;;;;;6.38;2.30;;;537.90;1484.80;;;;;;4957591;29;20115;-79
2022/04/02 13:25:20;;;;;;;5.30;2.08;;;538.10;1459.20;;;;;;4957471;28;20034;-79
2022/04/02 13:28:10;;;;;;;7.68;2.85;;;537.80;1484.80;;;;;;4940173;29;20063;-78
2022/04/02 13:30:48;;;;;;;10.23;5.10;;;538.40;1459.20;;;;;;4940438;29;20052;-79
2022/04/02 13:33:26;;;;;;;5.50;2.65;;;563.50;1459.20;;;;;;4940374;29;20091;-79
2022/04/02 13:36:01;;;;;;;6.88;4.55;;;563.30;1459.20;;;;;;4957518;28;20444;-78
2022/04/02 13:38:30;;;;;;;5.43;2.42;;;563.60;1433.60;;;;;;4957143;28;20353;-77
2022/04/02 13:41:01;;;;;;;12.20;5.80;;;563.20;1433.60;;;;;;4957037;29;20027;-80
2022/04/02 13:43:35;;;;;;;7.30;3.15;;;538.30;1433.60;;;;;;4940227;29;20040;-81
2022/04/02 13:46:13;;;;;;;6.95;2.78;;;537.90;1433.60;;;;;;4940002;29;20031;-80
2022/04/02 13:48:45;;;;;;;13.35;9.57;;;538.40;1408.00;;;;;;4957314;29;20069;-79
2022/04/02 13:51:12;;;;;;;7.53;2.22;;;563.50;1382.40;;;;;;4940123;29;20031;-80
2022/04/02 13:53:42;;;;;;;4.22;1.88;;;563.30;1382.40;;;;;;4957223;28;20360;-78
2022/04/02 13:56:20;;;;;;;4.35;2.00;;;563.20;1331.20;;;;;;4939670;29;20129;-79
2022/04/02 13:58:47;;;;;;;8.65;2.85;;;538.50;1305.60;;;;;;4939908;29;20073;-78
2022/04/02 14:01:18;;;;;;;8.18;4.80;;;563.60;1305.60;;;;;;4956910;29;20348;-79
2022/04/02 14:03:46;;;;;;;7.35;3.28;;;563.60;1305.60;;;;;;4956759;29;20034;-77
2022/04/02 14:06:14;;;;;;;6.10;3.05;;;563.20;1280.00;;;;;;4939873;29;20490;-80
2022/04/02 14:08:49;;;;;;;7.43;2.97;;;563.20;1280.00;;;;;;4956725;29;20122;-77
2022/04/02 14:11:20;;;;;;;9.20;3.88;;;538.50;1254.40;;;;;;4939852;29;20050;-78
2022/04/02 14:14:04;;;;;;;12.73;5.63;;;538.30;1254.40;;;;;;4950929;28;20030;-80
2022/04/02 14:16:38;;;;;;;9.07;4.13;;;538.50;1254.40;;;;;;4958351;29;20138;-77
2022/04/02 14:19:12;;;;;;;8.15;3.95;;;538.30;1254.40;;;;;;4943213;29;20452;-77
2022/04/02 14:21:39;;;;;;;7.80;3.40;;;538.20;1228.80;;;;;;4941989;29;20082;-80
2022/04/02 14:24:23;;;;;;;6.97;2.40;;;537.90;1254.40;;;;;;4959967;28;20047;-81
2022/04/02 14:27:14;;;;;;;9.75;5.55;;;512.90;1228.80;;;;;;4941333;29;20032;-81
2022/04/02 14:29:58;;;;;;;8.68;5.63;;;537.90;1254.40;;;;;;4939382;29;20019;-79
2022/04/02 14:32:45;;;;;;;8.52;5.50;;;538.20;1228.80;;;;;;4956746;29;20570;-80
2022/04/02 14:35:49;;;;;;;9.07;4.13;;;537.90;1254.40;;;;;;4938626;29;20146;-81
2022/04/02 14:38:55;;;;;;;8.48;4.00;;;537.90;1228.80;;;;;;4938728;28;20051;-80
2022/04/02 14:41:26;;;;;;;9.95;3.42;;;537.70;1254.40;;;;;;4939232;29;20077;-79
2022/04/02 14:44:19;;;;;;;8.13;3.53;;;512.50;1228.80;;;;;;4938817;29;20030;-78
2022/04/02 14:47:34;;;;;;;8.83;4.37;;;512.70;1254.40;;;;;;4939184;29;20027;-82
2022/04/02 14:50:37;;;;;;;6.18;3.30;;;512.60;1254.40;;;;;;4938896;29;20245;-80
2022/04/02 14:53:09;;;;;;;10.30;4.20;;;512.20;1254.40;;;;;;4938788;29;20016;-80
2022/04/02 14:56:12;;;;;;;8.68;4.32;;;512.30;1254.40;;;;;;4938615;29;20042;-82